Time;durP1;ratioP1;P1;durP2;ratioP2;P2;SDS_P1;SDS_P2;PMS_P1;PMS_P2;Temp;Humidity;BMP_temperature;BMP_pressure;BME280_temperature;BME280_humidity;BME280_pressure;Samples;Min_cycle;Max_cycle;Signal;HPM_P1;HPM_P2
2023/09/29 00:05:01;;;;;;;4.90;4.50;;;18.00;99.90;;;;;;10408540;28;20235;-80
2023/09/29 00:10:08;;;;;;;4.90;4.50;;;18.00;99.90;;;;;;10446091;28;20264;-80
2023/09/29 00:15:10;;;;;;;5.40;5.00;;;17.90;99.90;;;;;;10414848;28;20242;-81
2023/09/29 00:20:19;;;;;;;4.63;4.23;;;17.90;99.90;;;;;;10373416;28;20261;-80
2023/09/29 00:25:22;;;;;;;5.00;4.57;;;17.90;99.90;;;;;;10411182;28;20768;-81
2023/09/29 00:30:24;;;;;;;4.80;4.43;;;17.90;99.90;;;;;;10406409;28;20204;-81
2023/09/29 00:35:28;;;;;;;4.60;4.10;;;17.80;99.90;;;;;;10389321;28;20256;-81
2023/09/29 00:40:31;;;;;;;4.40;4.10;;;17.80;99.90;;;;;;10415029;28;20223;-81
2023/09/29 00:45:33;;;;;;;5.80;4.63;;;17.80;99.90;;;;;;10407716;28;20238;-81
2023/09/29 00:50:38;;;;;;;5.17;4.77;;;17.80;99.90;;;;;;10393735;28;20314;-81
2023/09/29 00:55:42;;;;;;;5.00;4.60;;;17.80;99.90;;;;;;10372270;28;20195;-79
2023/09/29 01:00:45;;;;;;;5.47;5.07;;;17.80;99.90;;;;;;10385354;28;20456;-81
2023/09/29 01:05:52;;;;;;;5.20;4.77;;;17.70;99.90;;;;;;10382082;28;20194;-81
2023/09/29 01:10:54;;;;;;;5.53;4.53;;;17.70;99.90;;;;;;10390093;28;20215;-81
2023/09/29 01:15:59;;;;;;;4.90;4.10;;;17.70;99.90;;;;;;10368457;28;20202;-81
2023/09/29 01:21:05;;;;;;;4.93;4.43;;;17.70;99.90;;;;;;10391499;28;20602;-81
2023/09/29 01:26:09;;;;;;;5.57;5.10;;;17.60;99.90;;;;;;10386267;28;20686;-81
2023/09/29 01:31:11;;;;;;;5.40;4.90;;;17.60;99.90;;;;;;10391814;28;20250;-80
2023/09/29 01:36:13;;;;;;;4.40;4.20;;;17.50;99.90;;;;;;10385952;28;20642;-81
2023/09/29 01:41:16;;;;;;;5.07;4.63;;;17.40;99.90;;;;;;10406374;28;20226;-81
2023/09/29 01:46:18;;;;;;;5.07;4.40;;;17.40;99.90;;;;;;10386103;28;20241;-81
2023/09/29 01:51:21;;;;;;;4.50;4.13;;;17.40;99.90;;;;;;10411698;28;20238;-81
2023/09/29 01:56:25;;;;;;;4.50;4.10;;;17.30;99.90;;;;;;10369461;28;20202;-81
2023/09/29 02:01:27;;;;;;;4.97;4.50;;;17.30;99.90;;;;;;10404118;28;20662;-80
2023/09/29 02:06:29;;;;;;;4.77;4.30;;;17.30;99.90;;;;;;10386371;28;20233;-81
2023/09/29 02:11:32;;;;;;;4.90;4.50;;;17.20;99.90;;;;;;10407480;28;20622;-81
2023/09/29 02:16:36;;;;;;;6.87;4.70;;;17.20;99.90;;;;;;10409757;28;20298;-81
2023/09/29 02:21:38;;;;;;;4.37;4.07;;;17.20;99.90;;;;;;10346988;28;20254;-81
2023/09/29 02:26:41;;;;;;;4.67;4.27;;;17.20;99.90;;;;;;10394200;28;20659;-81
2023/09/29 02:31:43;;;;;;;4.33;4.00;;;17.10;99.90;;;;;;10381270;28;20226;-80
2023/09/29 02:36:46;;;;;;;4.70;4.40;;;17.10;99.90;;;;;;10362336;28;20245;-80
2023/09/29 02:41:49;;;;;;;4.70;4.30;;;17.10;99.90;;;;;;10409773;28;20708;-81
2023/09/29 02:46:51;;;;;;;5.23;4.87;;;17.10;99.90;;;;;;10398515;28;20251;-81
2023/09/29 02:51:53;;;;;;;4.70;4.30;;;17.00;99.90;;;;;;10380170;28;20266;-81
2023/09/29 02:56:57;;;;;;;4.63;4.33;;;17.10;99.90;;;;;;10400295;28;20218;-81
2023/09/29 03:01:59;;;;;;;4.97;4.43;;;17.00;99.90;;;;;;10386682;28;20758;-81
2023/09/29 03:07:01;;;;;;;4.80;4.40;;;17.00;99.90;;;;;;10382227;28;20214;-81
2023/09/29 03:12:04;;;;;;;7.63;4.27;;;17.10;99.90;;;;;;10403442;28;20230;-81
2023/09/29 03:17:07;;;;;;;5.40;5.00;;;17.00;99.90;;;;;;10368264;28;20231;-81
2023/09/29 03:22:11;;;;;;;6.13;5.63;;;17.00;99.90;;;;;;10403312;28;20234;-81
2023/09/29 03:27:17;;;;;;;5.00;4.50;;;17.00;99.90;;;;;;10398013;28;20199;-81
2023/09/29 03:32:19;;;;;;;5.50;5.00;;;17.00;99.90;;;;;;10420559;28;20645;-81
2023/09/29 03:37:21;;;;;;;5.27;4.87;;;16.90;99.90;;;;;;10381746;28;20218;-81
2023/09/29 03:42:29;;;;;;;5.20;4.80;;;16.90;99.90;;;;;;10408557;28;20764;-81
2023/09/29 03:47:31;;;;;;;5.90;5.40;;;16.90;99.90;;;;;;10421666;28;20257;-81
2023/09/29 03:52:33;;;;;;;4.50;4.20;;;16.90;99.90;;;;;;10382189;28;20218;-81
2023/09/29 03:57:37;;;;;;;8.50;5.10;;;16.80;99.90;;;;;;10404463;28;20213;-81
2023/09/29 04:02:41;;;;;;;5.40;4.93;;;16.80;99.90;;;;;;10420040;28;20242;-81
2023/09/29 04:07:43;;;;;;;3.93;3.53;;;16.80;99.90;;;;;;10392290;28;20203;-80
2023/09/29 04:12:46;;;;;;;6.60;4.10;;;16.70;99.90;;;;;;10395399;28;20219;-81
2023/09/29 04:17:49;;;;;;;5.00;4.50;;;16.70;99.90;;;;;;10381733;28;20211;-81
2023/09/29 04:22:52;;;;;;;4.67;4.23;;;16.70;99.90;;;;;;10420279;28;20296;-81
2023/09/29 04:27:55;;;;;;;4.60;4.20;;;16.70;99.90;;;;;;10381244;28;20655;-81
2023/09/29 04:32:57;;;;;;;4.90;4.50;;;16.60;99.90;;;;;;10362810;28;20230;-81
2023/09/29 04:37:59;;;;;;;5.03;4.63;;;16.70;99.90;;;;;;10418296;28;20282;-81
2023/09/29 04:43:03;;;;;;;5.83;5.23;;;16.70;99.90;;;;;;10378660;28;21257;-80
2023/09/29 04:48:06;;;;;;;5.10;4.70;;;16.80;99.90;;;;;;10358834;28;20239;-81
2023/09/29 04:53:08;;;;;;;5.40;4.13;;;16.90;99.90;;;;;;10385240;28;20602;-80
2023/09/29 04:58:11;;;;;;;5.33;4.70;;;17.00;99.90;;;;;;10377187;28;20554;-80
2023/09/29 05:03:13;;;;;;;4.43;4.03;;;17.00;99.90;;;;;;10410829;28;20222;-80
2023/09/29 05:08:15;;;;;;;4.90;4.50;;;17.10;99.90;;;;;;10379085;28;20199;-81
2023/09/29 05:13:19;;;;;;;4.43;4.03;;;17.10;99.90;;;;;;10381403;28;20730;-80
2023/09/29 05:18:23;;;;;;;5.23;4.83;;;17.10;99.90;;;;;;10414717;28;20233;-80
2023/09/29 05:23:25;;;;;;;4.20;3.83;;;17.20;99.90;;;;;;10380165;28;20219;-81
2023/09/29 05:28:28;;;;;;;5.03;4.60;;;17.30;99.90;;;;;;10375644;28;20577;-80
2023/09/29 05:33:30;;;;;;;4.50;4.10;;;17.30;99.90;;;;;;10380264;28;20254;-80
2023/09/29 05:38:33;;;;;;;6.37;4.93;;;17.40;99.90;;;;;;10411916;28;20588;-81
2023/09/29 05:43:36;;;;;;;4.80;4.30;;;17.50;99.90;;;;;;10367521;28;20269;-80
2023/09/29 05:48:40;;;;;;;5.13;4.63;;;17.60;99.90;;;;;;10393478;28;20352;-80
2023/09/29 05:53:42;;;;;;;7.63;4.50;;;17.60;99.90;;;;;;10382193;28;20679;-81
2023/09/29 05:58:45;;;;;;;6.90;4.90;;;17.60;99.90;;;;;;10401844;28;20221;-79
2023/09/29 06:03:47;;;;;;;7.60;4.80;;;17.70;99.90;;;;;;10389619;28;20231;-81
2023/09/29 06:08:50;;;;;;;7.23;4.73;;;17.70;99.90;;;;;;10392657;28;20199;-81
2023/09/29 06:13:54;;;;;;;8.27;5.43;;;17.80;99.90;;;;;;10383628;28;20219;-81
2023/09/29 06:18:56;;;;;;;7.90;5.23;;;17.80;99.90;;;;;;10422304;28;20199;-81
2023/09/29 06:23:58;;;;;;;7.40;5.17;;;17.90;99.90;;;;;;10398378;28;20218;-80
2023/09/29 06:29:02;;;;;;;6.80;4.97;;;18.10;99.90;;;;;;10365903;28;20298;-81
2023/09/29 06:34:04;;;;;;;7.20;5.47;;;18.20;99.90;;;;;;10388815;28;20728;-80
2023/09/29 06:39:07;;;;;;;7.33;6.10;;;18.40;99.90;;;;;;10413708;28;20265;-81
2023/09/29 06:44:11;;;;;;;7.40;5.53;;;18.50;99.90;;;;;;10374085;28;20310;-79
2023/09/29 06:49:13;;;;;;;5.90;5.40;;;18.60;99.90;;;;;;10396627;28;20701;-80
2023/09/29 06:54:15;;;;;;;6.70;4.90;;;18.60;99.90;;;;;;10378248;28;20605;-81
2023/09/29 06:59:19;;;;;;;6.10;5.50;;;18.80;99.90;;;;;;10395283;28;20242;-81
2023/09/29 07:04:21;;;;;;;6.10;5.30;;;18.90;99.90;;;;;;10413019;28;20229;-81
2023/09/29 07:09:23;;;;;;;6.37;5.20;;;19.00;99.90;;;;;;10393674;28;20202;-80
2023/09/29 07:14:27;;;;;;;5.10;4.60;;;19.20;99.90;;;;;;10393603;28;20310;-81
2023/09/29 07:19:31;;;;;;;9.57;5.13;;;19.30;99.90;;;;;;10366200;28;20199;-81
2023/09/29 07:24:33;;;;;;;12.33;6.17;;;19.40;99.90;;;;;;10411559;28;20701;-81
2023/09/29 07:29:37;;;;;;;5.23;4.73;;;19.70;99.90;;;;;;10393853;28;20234;-81
2023/09/29 07:34:39;;;;;;;8.00;4.70;;;19.80;99.90;;;;;;10410720;28;20222;-81
2023/09/29 07:39:41;;;;;;;7.70;4.87;;;20.00;99.90;;;;;;10393659;28;20208;-81
2023/09/29 07:44:44;;;;;;;8.50;5.17;;;20.10;99.90;;;;;;10413620;28;20226;-81
2023/09/29 07:49:47;;;;;;;8.43;5.10;;;20.10;99.90;;;;;;10394876;28;20222;-81
2023/09/29 07:54:49;;;;;;;5.30;4.60;;;20.20;99.90;;;;;;10385965;28;20234;-81
2023/09/29 07:59:52;;;;;;;7.20;6.00;;;20.30;99.90;;;;;;10391178;28;20203;-81
2023/09/29 08:04:55;;;;;;;6.20;5.40;;;20.40;99.90;;;;;;10393355;28;20294;-81
2023/09/29 08:09:57;;;;;;;6.73;5.07;;;20.50;99.90;;;;;;10406376;28;20277;-81
2023/09/29 08:15:00;;;;;;;5.97;4.60;;;20.60;99.80;;;;;;10418839;28;20215;-81
2023/09/29 08:20:05;;;;;;;4.40;4.00;;;20.70;99.10;;;;;;10375570;28;20560;-68
2023/09/29 08:25:11;;;;;;;5.27;4.17;;;20.70;97.90;;;;;;10385349;28;20234;-80
2023/09/29 08:30:14;;;;;;;4.80;3.97;;;20.80;98.60;;;;;;10374404;28;20199;-81
2023/09/29 08:35:17;;;;;;;4.33;3.70;;;20.90;98.90;;;;;;10392208;28;20204;-81
2023/09/29 08:40:19;;;;;;;4.00;3.70;;;21.20;98.10;;;;;;10365992;28;20214;-81
2023/09/29 08:45:29;;;;;;;10.23;3.70;;;21.40;98.60;;;;;;10392384;28;20334;-81
2023/09/29 08:50:32;;;;;;;4.77;4.37;;;21.30;97.90;;;;;;10409420;28;20299;-81
2023/09/29 08:55:35;;;;;;;5.83;4.10;;;21.30;98.10;;;;;;10404915;28;20253;-81
2023/09/29 09:00:40;;;;;;;4.03;3.73;;;21.10;98.20;;;;;;10397700;28;20227;-81
2023/09/29 09:05:47;;;;;;;4.23;3.93;;;21.00;98.20;;;;;;10399543;28;20233;-81
2023/09/29 09:10:50;;;;;;;5.70;4.40;;;20.90;98.90;;;;;;10397699;28;20223;-81
2023/09/29 09:15:57;;;;;;;4.47;3.80;;;20.80;99.00;;;;;;10390237;28;20639;-78
2023/09/29 09:20:59;;;;;;;4.90;4.60;;;20.80;99.00;;;;;;10372822;28;20706;-79
2023/09/29 09:26:11;;;;;;;4.30;3.60;;;20.80;99.50;;;;;;10391795;28;20227;-79
2023/09/29 09:31:15;;;;;;;3.70;3.40;;;20.90;98.70;;;;;;10403827;28;20230;-79
2023/09/29 09:36:17;;;;;;;3.93;3.53;;;21.40;98.20;;;;;;10383426;28;20202;-80
2023/09/29 09:41:20;;;;;;;3.40;3.10;;;22.00;97.90;;;;;;10358726;28;20224;-80
2023/09/29 09:46:24;;;;;;;3.73;3.33;;;22.30;97.40;;;;;;10386510;28;20227;-81
2023/09/29 09:51:35;;;;;;;3.10;2.83;;;22.70;96.90;;;;;;10384244;28;20222;-82
2023/09/29 09:56:45;;;;;;;3.43;3.00;;;23.00;96.50;;;;;;10405564;28;20222;-82
2023/09/29 10:01:51;;;;;;;3.87;3.57;;;23.20;95.60;;;;;;10392960;28;20313;-82
2023/09/29 10:06:55;;;;;;;2.97;2.77;;;23.30;95.50;;;;;;10393135;28;20225;-82
2023/09/29 10:12:01;;;;;;;3.20;3.00;;;23.50;95.40;;;;;;10410781;28;20218;-82
2023/09/29 10:17:06;;;;;;;3.37;3.10;;;23.60;95.60;;;;;;10414158;28;20808;-82
2023/09/29 10:22:09;;;;;;;3.33;3.03;;;23.60;95.80;;;;;;10409289;28;20286;-82
2023/09/29 10:27:11;;;;;;;3.80;3.50;;;23.50;96.00;;;;;;10400921;28;20207;-81
2023/09/29 10:32:16;;;;;;;3.80;3.50;;;23.50;95.30;;;;;;10375666;28;20230;-82
2023/09/29 12:13:33;;;;;;;4.57;3.90;;;23.00;98.00;;;;;;10046295;29;20185;-82
2023/09/29 12:32:44;;;;;;;4.13;3.83;;;23.30;97.20;;;;;;10370369;28;20199;-82
2023/09/29 12:44:52;;;;;;;;;;;;;;;;;;;;;
2023/09/29 12:50:56;;;;;;;3.90;3.60;;;23.60;96.80;;;;;;10224913;29;20318;-82
2023/09/29 13:26:10;;;;;;;3.23;2.87;;;23.40;95.30;;;;;;10606142;27;20724;-80
2023/09/29 13:31:31;;;;;;;4.27;3.87;;;23.50;95.20;;;;;;10620909;27;20602;-81
2023/09/29 13:36:55;;;;;;;3.53;3.10;;;23.50;95.10;;;;;;10625589;27;20215;-82
2023/09/29 13:42:27;;;;;;;3.70;3.40;;;23.70;95.20;;;;;;10625676;27;20231;-82
2023/09/29 13:54:56;;;;;;;3.17;2.97;;;24.00;94.90;;;;;;10546626;27;20220;-81
2023/09/29 14:18:52;;;;;;;4.03;3.40;;;24.00;96.20;;;;;;10533798;28;20243;-82
2023/09/29 14:25:03;;;;;;;3.87;3.07;;;23.90;96.60;;;;;;10598650;28;20595;-83
2023/09/29 14:36:47;;;;;;;3.20;3.00;;;24.00;96.70;;;;;;10581134;28;20231;-82
2023/09/29 14:42:16;;;;;;;3.33;3.13;;;24.10;96.50;;;;;;10600327;28;20216;-82
2023/09/29 15:14:01;;;;;;;5.40;4.03;;;24.00;98.90;;;;;;10537786;28;20406;-82
2023/09/29 15:27:04;;;;;;;4.17;3.77;;;23.90;99.70;;;;;;10394088;27;20215;-82
2023/09/29 15:33:18;;;;;;;6.57;4.17;;;23.70;99.90;;;;;;10415765;28;20230;-82
2023/09/29 15:58:43;;;;;;;;;;;;;;;;;;;;;
2023/09/29 16:04:32;;;;;;;10.90;6.07;;;23.00;99.70;;;;;;10572108;28;20200;-80
2023/09/29 16:17:23;;;;;;;;;;;;;;;;;;;;;
2023/09/29 16:29:31;;;;;;;16.97;9.67;;;22.60;99.20;;;;;;10381940;28;20813;-80
2023/09/29 16:54:18;;;;;;;25.10;13.70;;;22.10;98.50;;;;;;10504566;28;20282;-79
2023/09/29 16:59:46;;;;;;;28.60;13.33;;;22.00;98.40;;;;;;10541277;28;20208;-81
2023/09/29 17:05:35;;;;;;;29.53;15.77;;;22.00;98.00;;;;;;10546064;28;20243;-81
2023/09/29 17:11:13;;;;;;;27.90;14.40;;;21.90;98.10;;;;;;10531865;28;20200;-80
2023/09/29 17:16:42;;;;;;;26.37;14.90;;;21.80;97.50;;;;;;10534460;28;20219;-79
2023/09/29 17:22:22;;;;;;;28.20;13.70;;;21.70;97.70;;;;;;10553813;28;20227;-79
2023/09/29 17:28:31;;;;;;;33.03;14.70;;;21.60;97.70;;;;;;10517072;28;20242;-80
2023/09/29 17:40:14;;;;;;;34.40;15.37;;;21.40;97.80;;;;;;10594031;28;20204;-79
2023/09/29 17:45:40;;;;;;;25.20;13.70;;;21.30;97.80;;;;;;10550111;28;20223;-79
2023/09/29 17:51:16;;;;;;;21.63;11.60;;;21.20;97.90;;;;;;10554065;28;20208;-80
2023/09/29 17:56:38;;;;;;;29.30;13.37;;;21.10;97.80;;;;;;10548902;28;20267;-79
2023/09/29 18:01:59;;;;;;;27.13;14.37;;;21.10;97.70;;;;;;10519312;28;20218;-80
2023/09/29 18:07:49;;;;;;;23.43;13.07;;;21.10;98.40;;;;;;10554047;28;20581;-80
2023/09/29 18:13:22;;;;;;;25.40;11.60;;;21.00;98.40;;;;;;10574842;28;20199;-81
2023/09/29 18:25:22;;;;;;;20.73;11.67;;;21.00;98.30;;;;;;10540129;28;20293;-80
2023/09/29 18:31:06;;;;;;;26.87;13.97;;;21.00;98.40;;;;;;10556412;28;20248;-81
2023/09/29 18:36:37;;;;;;;21.87;11.83;;;21.00;99.10;;;;;;10555243;28;20212;-80
2023/09/29 18:47:32;;;;;;;21.60;11.10;;;20.80;99.00;;;;;;10528732;28;20549;-79
2023/09/29 18:58:19;;;;;;;20.73;11.03;;;20.70;99.90;;;;;;10533791;28;20602;-80
2023/09/29 19:03:31;;;;;;;20.20;11.53;;;20.60;99.90;;;;;;10561405;28;20659;-79
2023/09/29 19:09:04;;;;;;;28.10;12.30;;;20.60;99.90;;;;;;10548355;28;20273;-79
2023/09/29 19:14:45;;;;;;;19.17;10.20;;;20.50;99.90;;;;;;10568374;28;20217;-80
2023/09/29 19:20:32;;;;;;;16.90;9.30;;;20.40;99.90;;;;;;10561031;28;20547;-80
2023/09/29 19:26:22;;;;;;;14.93;8.30;;;20.50;99.50;;;;;;10480512;28;20220;-81
2023/09/29 19:32:03;;;;;;;14.40;9.13;;;20.40;99.50;;;;;;10449679;28;20201;-80
2023/09/29 19:43:18;;;;;;;13.43;7.50;;;20.30;99.00;;;;;;10517657;28;20664;-80
2023/09/29 19:48:31;;;;;;;18.67;9.00;;;20.30;99.90;;;;;;10558261;28;20215;-81
2023/09/29 19:53:58;;;;;;;14.03;7.80;;;20.30;99.90;;;;;;10555826;28;20242;-81
2023/09/29 19:59:39;;;;;;;13.17;7.37;;;20.20;99.90;;;;;;10571917;28;20206;-80
2023/09/29 20:05:20;;;;;;;21.50;9.20;;;20.20;99.90;;;;;;10586954;28;20219;-80
2023/09/29 20:11:15;;;;;;;19.53;9.20;;;20.10;99.90;;;;;;10545269;28;20189;-80
2023/09/29 20:16:26;;;;;;;13.53;7.43;;;20.10;99.90;;;;;;10528371;28;20262;-79
2023/09/29 20:21:44;;;;;;;10.07;5.60;;;20.00;99.90;;;;;;10531335;28;20995;-80
2023/09/29 20:27:16;;;;;;;;;;;;;;;;;;;;;
2023/09/29 20:32:50;;;;;;;10.37;6.40;;;20.00;99.90;;;;;;10510363;28;20185;-80
2023/09/29 20:44:56;;;;;;;10.67;5.70;;;19.90;99.90;;;;;;10529625;28;20258;-81
2023/09/29 20:56:21;;;;;;;11.40;5.60;;;19.80;99.90;;;;;;10531376;28;20238;-80
2023/09/29 21:01:54;;;;;;;9.47;5.80;;;19.90;99.90;;;;;;10527831;28;20240;-79
2023/09/29 21:07:27;;;;;;;11.30;6.53;;;19.80;99.90;;;;;;10529609;28;20224;-80
2023/09/29 21:12:54;;;;;;;10.30;6.40;;;19.80;99.90;;;;;;10537321;28;20249;-80
2023/09/29 21:18:19;;;;;;;7.53;5.10;;;19.80;99.90;;;;;;10539231;28;20229;-80
2023/09/29 21:23:33;;;;;;;8.90;5.47;;;19.70;99.90;;;;;;10530188;28;20224;-81
2023/09/29 21:28:49;;;;;;;8.50;5.20;;;19.70;99.90;;;;;;10558991;28;20227;-79
2023/09/29 21:34:07;;;;;;;7.67;4.73;;;19.70;99.90;;;;;;10546243;28;20191;-79
2023/09/29 21:39:43;;;;;;;9.30;5.33;;;19.60;99.90;;;;;;10561692;28;20196;-78
2023/09/29 21:45:14;;;;;;;8.33;4.47;;;19.60;99.90;;;;;;10541179;28;20322;-79
2023/09/29 21:50:46;;;;;;;6.00;4.17;;;19.60;99.90;;;;;;10488524;28;20274;-80
2023/09/29 21:56:18;;;;;;;6.80;4.40;;;19.60;99.90;;;;;;10533083;28;20251;-80
2023/09/29 22:01:21;;;;;;;6.33;4.63;;;19.50;99.90;;;;;;10506138;28;20217;-79
2023/09/29 22:06:23;;;;;;;5.97;4.10;;;19.50;99.90;;;;;;10525640;28;20279;-79
2023/09/29 22:11:28;;;;;;;8.20;5.23;;;19.50;99.90;;;;;;10519041;28;20193;-79
2023/09/29 22:16:30;;;;;;;7.47;4.63;;;19.50;99.90;;;;;;10527811;28;20233;-79
2023/09/29 22:21:32;;;;;;;7.07;4.30;;;19.40;99.90;;;;;;10519163;28;20348;-80
2023/09/29 22:26:36;;;;;;;7.60;4.67;;;19.40;99.90;;;;;;10538500;28;20242;-79
2023/09/29 22:31:38;;;;;;;6.40;4.13;;;19.40;99.90;;;;;;10528353;28;20196;-79
2023/09/29 22:36:44;;;;;;;9.47;5.00;;;19.40;99.90;;;;;;10560287;22;20234;-80
2023/09/29 22:42:04;;;;;;;7.03;4.97;;;19.30;99.90;;;;;;10550072;28;20729;-80
2023/09/29 22:47:46;;;;;;;8.53;4.90;;;19.30;99.90;;;;;;10502849;28;20567;-81
2023/09/29 22:53:15;;;;;;;7.33;5.40;;;19.30;99.90;;;;;;10556971;28;20204;-80
2023/09/29 22:58:38;;;;;;;8.23;4.73;;;19.30;99.90;;;;;;10564309;28;20299;-82
2023/09/29 23:04:02;;;;;;;10.53;5.13;;;19.30;99.90;;;;;;10543030;28;20632;-80
2023/09/29 23:09:22;;;;;;;9.70;4.97;;;19.30;99.90;;;;;;10570358;28;20222;-82
2023/09/29 23:14:33;;;;;;;6.13;4.43;;;19.20;99.90;;;;;;10583616;28;20248;-80
2023/09/29 23:19:58;;;;;;;10.03;5.07;;;19.20;99.90;;;;;;10568244;28;20255;-80
2023/09/29 23:25:11;;;;;;;6.27;4.13;;;19.20;99.90;;;;;;10568865;28;20231;-81
2023/09/29 23:30:20;;;;;;;7.70;4.73;;;19.20;99.90;;;;;;10570138;28;20245;-80
2023/09/29 23:35:22;;;;;;;8.23;4.70;;;19.20;99.90;;;;;;10584206;28;20281;-81
2023/09/29 23:40:24;;;;;;;7.73;4.90;;;19.30;99.90;;;;;;10544902;28;20228;-83
2023/09/29 23:45:28;;;;;;;7.17;4.47;;;19.30;99.90;;;;;;10543398;28;20229;-81
2023/09/29 23:50:30;;;;;;;8.83;5.43;;;19.30;99.90;;;;;;10525264;28;20204;-81
2023/09/29 23:55:33;;;;;;;5.47;4.33;;;19.30;99.90;;;;;;10544880;28;20311;-81
